Time;durP1;ratioP1;P1;durP2;ratioP2;P2;SDS_P1;SDS_P2;PMS_P1;PMS_P2;Temp;Humidity;BMP_temperature;BMP_pressure;BME280_temperature;BME280_humidity;BME280_pressure;Samples;Min_cycle;Max_cycle;Signal;HPM_P1;HPM_P2
2021/10/12 00:00:33;;;;;;;8.48;7.68;;;;;;;12.22;45.01;101092.02;460682;114;922721;-73
2021/10/12 00:01:36;;;;;;;9.89;8.04;;;;;;;12.23;45.18;101084.66;461476;113;922459;-74
2021/10/12 00:02:40;;;;;;;7.39;6.89;;;;;;;12.24;45.07;101087.16;464836;112;926137;-72
2021/10/12 00:03:43;;;;;;;6.72;6.17;;;;;;;12.25;45.25;101088.00;464975;111;930543;-74
2021/10/12 00:04:47;;;;;;;7.24;6.66;;;;;;;12.26;45.29;101089.69;463544;112;930542;-73
2021/10/12 00:05:50;;;;;;;7.80;7.09;;;;;;;12.27;45.36;101088.64;464614;112;923047;-73
2021/10/12 00:06:54;;;;;;;8.96;7.35;;;;;;;12.26;44.79;101090.53;464804;111;923176;-74
2021/10/12 00:07:57;;;;;;;7.05;6.45;;;;;;;12.26;44.32;101081.48;464199;112;930613;-74
2021/10/12 00:09:00;;;;;;;7.76;6.99;;;;;;;12.28;44.56;101084.86;463915;112;923034;-72
2021/10/12 00:10:05;;;;;;;6.81;6.21;;;;;;;12.28;44.81;101080.23;465507;113;922544;-73
2021/10/12 00:11:08;;;;;;;7.37;6.81;;;;;;;12.29;44.92;101084.66;464368;112;922785;-73
2021/10/12 00:12:11;;;;;;;7.59;6.89;;;;;;;12.30;45.03;101077.27;464866;112;922943;-73
2021/10/12 00:13:15;;;;;;;9.62;6.86;;;;;;;12.30;45.04;101080.00;464177;111;922539;-74
2021/10/12 00:14:19;;;;;;;7.59;6.87;;;;;;;12.31;44.87;101079.80;465457;111;922646;-73
2021/10/12 00:15:23;;;;;;;7.32;6.59;;;;;;;12.33;44.72;101076.86;464701;112;923112;-73
2021/10/12 00:16:28;;;;;;;7.57;6.91;;;;;;;12.34;44.92;101073.08;464170;112;923200;-74
2021/10/12 00:17:31;;;;;;;7.04;6.39;;;;;;;12.35;44.66;101075.57;464215;113;922493;-74
2021/10/12 00:18:35;;;;;;;6.49;5.92;;;;;;;12.35;44.28;101072.02;465292;113;926335;-74
2021/10/12 00:19:38;;;;;;;7.12;6.04;;;;;;;12.37;44.01;101069.89;465090;112;922981;-74
2021/10/12 00:20:42;;;;;;;7.12;6.51;;;;;;;12.39;43.70;101070.53;464709;111;922618;-74
2021/10/12 00:21:45;;;;;;;6.99;6.36;;;;;;;12.41;43.48;101069.24;465016;112;930528;-73
2021/10/12 00:22:49;;;;;;;6.71;6.14;;;;;;;12.42;43.34;101070.93;465184;113;922617;-73
2021/10/12 00:23:53;;;;;;;6.71;6.21;;;;;;;12.44;43.28;101068.83;463731;111;930698;-74
2021/10/12 00:24:56;;;;;;;7.76;6.62;;;;;;;12.46;43.19;101063.97;464432;111;922478;-73
2021/10/12 00:26:00;;;;;;;8.28;6.92;;;;;;;12.48;43.04;101071.97;464624;112;925299;-73
2021/10/12 00:27:03;;;;;;;6.52;5.99;;;;;;;12.49;42.92;101073.65;465165;113;930605;-72
2021/10/12 00:28:06;;;;;;;6.97;5.83;;;;;;;12.50;42.92;101067.13;463830;111;930496;-74
2021/10/12 00:29:10;;;;;;;7.18;6.51;;;;;;;12.50;42.82;101064.39;465164;111;922995;-73
2021/10/12 00:30:13;;;;;;;7.02;6.41;;;;;;;12.52;42.79;101073.20;464447;112;923029;-73
2021/10/12 00:31:16;;;;;;;7.49;6.08;;;;;;;12.53;42.81;101072.16;465776;112;922720;-74
2021/10/12 00:32:20;;;;;;;9.77;6.53;;;;;;;12.53;42.71;101069.42;464743;112;923128;-73
2021/10/12 00:33:25;;;;;;;7.23;6.59;;;;;;;12.54;42.61;101063.74;464695;112;922557;-73
2021/10/12 00:34:28;;;;;;;7.06;6.54;;;;;;;12.54;42.66;101071.11;464421;111;930656;-73
2021/10/12 00:35:32;;;;;;;6.94;6.43;;;;;;;12.53;42.73;101070.27;464999;111;922581;-74
2021/10/12 00:36:36;;;;;;;6.65;6.14;;;;;;;12.52;42.84;101068.58;464017;111;922608;-74
2021/10/12 00:37:39;;;;;;;7.48;6.24;;;;;;;12.50;42.94;101065.23;464623;112;922842;-73
2021/10/12 00:38:43;;;;;;;7.30;6.44;;;;;;;12.47;43.08;101060.18;465504;113;923037;-73
2021/10/12 00:39:46;;;;;;;7.66;6.14;;;;;;;12.45;43.20;101067.78;464762;112;923028;-73
2021/10/12 00:40:50;;;;;;;7.62;6.84;;;;;;;12.42;43.25;101068.20;465351;111;922645;-73
2021/10/12 00:41:55;;;;;;;7.36;6.70;;;;;;;12.40;43.34;101069.48;464746;113;922781;-72
2021/10/12 00:42:59;;;;;;;8.54;6.19;;;;;;;12.36;43.39;101071.78;465137;112;922564;-73
2021/10/12 00:44:02;;;;;;;6.84;6.26;;;;;;;12.32;43.53;101066.97;464519;111;922573;-72
2021/10/12 00:45:09;;;;;;;6.57;6.08;;;;;;;12.29;43.64;101065.52;464679;111;930409;-74
2021/10/12 00:46:14;;;;;;;7.23;6.58;;;;;;;12.25;43.75;101066.97;464619;112;922652;-74
2021/10/12 00:47:17;;;;;;;8.12;6.57;;;;;;;12.22;43.96;101072.88;465336;113;923182;-74
2021/10/12 00:48:21;;;;;;;9.93;7.01;;;;;;;12.18;44.02;101068.06;464110;111;930634;-73
2021/10/12 00:49:25;;;;;;;7.11;6.42;;;;;;;12.15;44.11;101073.94;464275;112;923508;-73
2021/10/12 00:50:31;;;;;;;6.70;6.16;;;;;;;12.11;43.98;101070.80;463875;112;922952;-73
2021/10/12 00:51:34;;;;;;;7.07;6.14;;;;;;;12.07;43.96;101075.02;463458;112;922986;-73
2021/10/12 00:52:38;;;;;;;6.79;6.28;;;;;;;12.03;44.04;101076.48;463397;112;922590;-73
2021/10/12 00:53:42;;;;;;;7.06;6.39;;;;;;;12.01;44.05;101073.98;463704;112;923112;-73
2021/10/12 00:54:45;;;;;;;6.71;6.16;;;;;;;11.99;44.11;101065.14;464625;111;922984;-73
2021/10/12 00:55:48;;;;;;;8.13;6.22;;;;;;;12.00;44.23;101068.72;464948;113;923032;-74
2021/10/12 00:56:52;;;;;;;7.80;7.01;;;;;;;11.99;44.47;101059.67;464670;113;922765;-73
2021/10/12 00:57:56;;;;;;;8.70;6.38;;;;;;;11.99;44.57;101059.67;464588;112;930776;-73
2021/10/12 00:59:01;;;;;;;8.14;7.31;;;;;;;11.99;44.76;101069.77;463659;112;930557;-72
2021/10/12 01:00:06;;;;;;;6.69;6.17;;;;;;;11.97;44.90;101063.66;464627;112;922936;-75
2021/10/12 01:01:10;;;;;;;7.01;6.42;;;;;;;11.96;44.98;101062.81;465245;112;922534;-72
2021/10/12 01:02:13;;;;;;;6.62;6.08;;;;;;;11.96;44.94;101065.55;464013;112;923171;-74
2021/10/12 01:03:17;;;;;;;8.68;6.83;;;;;;;11.96;44.94;101059.27;464507;112;930633;-72
2021/10/12 01:04:21;;;;;;;6.85;6.25;;;;;;;11.95;44.95;101055.69;465089;112;923052;-74
2021/10/12 01:05:24;;;;;;;6.92;5.77;;;;;;;11.95;45.08;101063.89;447930;115;922498;-73
2021/10/12 01:06:29;;;;;;;6.89;6.30;;;;;;;11.96;45.08;101062.00;464655;113;923076;-73
2021/10/12 01:07:32;;;;;;;6.59;5.94;;;;;;;11.96;45.23;101062.00;464876;113;922448;-73
2021/10/12 01:08:36;;;;;;;6.97;6.40;;;;;;;11.96;45.36;101059.27;465212;111;923097;-73
2021/10/12 01:09:40;;;;;;;7.16;6.58;;;;;;;11.97;45.45;101053.57;464482;113;923247;-72
2021/10/12 01:10:46;;;;;;;8.02;6.01;;;;;;;11.97;45.48;101061.77;463957;112;923230;-71
2021/10/12 01:11:49;;;;;;;7.53;6.46;;;;;;;11.97;45.55;101056.30;457026;114;923132;-73
2021/10/12 01:12:53;;;;;;;6.84;6.14;;;;;;;11.96;45.46;101051.88;465005;113;930395;-71
2021/10/12 01:13:57;;;;;;;6.94;6.37;;;;;;;11.97;45.38;101058.19;463934;112;922816;-74
2021/10/12 01:15:06;;;;;;;7.37;6.26;;;;;;;11.97;45.24;101059.03;464767;113;922721;-75
2021/10/12 01:16:10;;;;;;;7.18;6.55;;;;;;;11.98;45.25;101055.25;464619;111;930668;-73
2021/10/12 01:17:14;;;;;;;6.78;6.16;;;;;;;12.02;45.13;101052.92;465611;112;922773;-73
2021/10/12 01:18:18;;;;;;;7.40;6.73;;;;;;;12.02;45.13;101052.92;464385;111;923121;-72
2021/10/12 01:19:21;;;;;;;6.81;6.21;;;;;;;12.03;45.42;101041.79;464537;112;923579;-73
2021/10/12 01:20:28;;;;;;;6.88;6.35;;;;;;;12.03;45.03;101049.98;465097;113;923021;-73
2021/10/12 01:21:40;;;;;;;7.30;5.82;;;;;;;12.04;44.98;101057.14;464337;112;922481;-72
2021/10/12 01:22:46;;;;;;;8.61;7.13;;;;;;;12.05;45.25;101047.05;464120;111;922863;-72
2021/10/12 01:23:49;;;;;;;6.98;6.34;;;;;;;12.05;45.23;101050.63;465156;112;923203;-72
2021/10/12 01:24:52;;;;;;;7.42;6.33;;;;;;;12.06;44.97;101046.00;465455;112;923136;-73
2021/10/12 01:25:55;;;;;;;7.39;6.34;;;;;;;12.06;44.83;101037.80;465616;113;923039;-72
2021/10/12 01:26:59;;;;;;;6.51;5.86;;;;;;;12.06;44.80;101038.65;465041;112;922604;-73
2021/10/12 01:28:03;;;;;;;6.58;6.06;;;;;;;12.06;44.74;101041.38;464853;113;922678;-73
2021/10/12 01:29:07;;;;;;;7.34;6.26;;;;;;;12.07;45.01;101044.95;464853;112;922591;-73
2021/10/12 01:30:12;;;;;;;7.36;6.52;;;;;;;12.08;45.12;101049.34;464534;112;923188;-72
2021/10/12 01:31:24;;;;;;;8.22;6.71;;;;;;;12.08;45.10;101050.19;464293;111;922618;-71
2021/10/12 01:32:27;;;;;;;7.37;6.58;;;;;;;12.10;45.06;101047.25;464617;112;930485;-72
2021/10/12 01:33:31;;;;;;;7.36;6.71;;;;;;;12.10;45.00;101050.83;464501;111;922487;-72
2021/10/12 01:34:34;;;;;;;6.52;6.01;;;;;;;12.11;45.09;101046.20;464034;111;922624;-72
2021/10/12 01:35:38;;;;;;;7.46;6.82;;;;;;;12.12;45.10;101047.89;464369;111;922588;-73
2021/10/12 01:36:43;;;;;;;7.26;6.57;;;;;;;12.12;45.23;101047.89;465000;113;923080;-73
2021/10/12 01:37:46;;;;;;;7.54;6.70;;;;;;;12.13;45.36;101044.92;465840;112;922929;-73
2021/10/12 01:38:49;;;;;;;7.47;6.84;;;;;;;12.15;45.26;101049.34;453393;115;922588;-73
2021/10/12 01:39:53;;;;;;;7.36;6.77;;;;;;;12.15;45.09;101041.98;455474;113;923045;-74
2021/10/12 01:40:56;;;;;;;8.06;7.32;;;;;;;12.15;45.12;101044.71;465158;112;930502;-72
2021/10/12 01:42:01;;;;;;;9.25;7.00;;;;;;;12.16;45.23;101037.36;465157;112;922684;-74
2021/10/12 01:43:04;;;;;;;8.16;7.33;;;;;;;12.16;45.23;101037.36;464294;112;922504;-70
2021/10/12 01:44:13;;;;;;;7.92;6.94;;;;;;;12.15;45.19;101038.41;464190;111;922647;-72
2021/10/12 01:45:16;;;;;;;7.87;7.13;;;;;;;12.16;45.10;101040.09;465174;111;922637;-72
2021/10/12 01:46:20;;;;;;;7.14;6.53;;;;;;;12.16;45.15;101040.09;465839;113;922555;-72
2021/10/12 01:47:23;;;;;;;8.18;6.81;;;;;;;12.17;45.09;101033.57;464157;111;922992;-72
2021/10/12 01:48:27;;;;;;;9.03;6.83;;;;;;;12.19;44.84;101039.64;464953;112;928931;-71
2021/10/12 01:49:30;;;;;;;7.83;7.08;;;;;;;12.20;44.79;101044.06;464876;113;922589;-74
2021/10/12 01:50:34;;;;;;;8.40;7.06;;;;;;;12.22;44.97;101039.23;445876;118;922769;-73
2021/10/12 01:51:38;;;;;;;9.45;6.87;;;;;;;12.23;45.00;101039.03;445410;113;922832;-72
2021/10/12 01:52:41;;;;;;;9.64;7.21;;;;;;;12.24;44.94;101037.14;464754;112;923230;-73
2021/10/12 01:53:45;;;;;;;8.73;7.82;;;;;;;12.26;44.85;101043.21;465225;113;922723;-74
2021/10/12 01:54:49;;;;;;;9.44;7.29;;;;;;;12.26;44.59;101032.27;465163;113;922918;-74
2021/10/12 01:55:52;;;;;;;7.39;6.78;;;;;;;12.28;44.51;101038.38;464921;113;923111;-72
2021/10/12 01:56:57;;;;;;;7.52;6.92;;;;;;;12.28;44.34;101043.84;464301;112;931227;-73
2021/10/12 01:58:00;;;;;;;8.53;6.92;;;;;;;12.29;44.11;101034.59;464825;113;930530;-73
2021/10/12 01:59:03;;;;;;;7.90;7.12;;;;;;;12.29;44.09;101040.91;465573;112;922623;-73
2021/10/12 02:00:08;;;;;;;7.75;7.10;;;;;;;12.31;44.16;101037.94;464731;112;923178;-73
2021/10/12 02:01:23;;;;;;;7.88;7.16;;;;;;;12.33;44.30;101041.31;464752;112;922599;-72
2021/10/12 02:02:27;;;;;;;8.58;7.93;;;;;;;12.34;44.37;101048.46;464216;111;923110;-72
2021/10/12 02:03:31;;;;;;;8.06;7.29;;;;;;;12.34;44.36;101046.57;455478;114;923117;-72
2021/10/12 02:04:34;;;;;;;8.81;8.07;;;;;;;12.36;44.33;101044.44;455430;113;922564;-73
2021/10/12 02:05:37;;;;;;;8.68;7.89;;;;;;;12.36;44.44;101044.44;455546;113;925647;-73
2021/10/12 02:06:41;;;;;;;7.98;7.38;;;;;;;12.37;44.44;101032.45;456188;116;922341;-74
2021/10/12 02:07:44;;;;;;;8.31;7.24;;;;;;;12.39;44.40;101043.19;455480;115;923000;-72
2021/10/12 02:08:48;;;;;;;8.21;7.61;;;;;;;12.39;44.43;101034.98;455335;113;922580;-74
2021/10/12 02:09:51;;;;;;;8.64;7.79;;;;;;;12.37;44.42;101026.98;455301;116;923066;-73
2021/10/12 02:10:54;;;;;;;8.53;7.80;;;;;;;12.38;44.53;101036.87;455849;116;922650;-72
2021/10/12 02:11:58;;;;;;;9.02;8.31;;;;;;;12.38;44.64;101036.87;455124;114;922657;-73
2021/10/12 02:13:01;;;;;;;12.51;7.75;;;;;;;12.36;44.71;101033.50;455052;113;922651;-72
2021/10/12 02:14:04;;;;;;;8.63;7.86;;;;;;;12.37;44.68;101031.61;455643;113;922567;-72
2021/10/12 02:15:09;;;;;;;10.49;9.33;;;;;;;12.37;44.76;101034.34;455871;116;922629;-73
2021/10/12 02:16:13;;;;;;;8.77;8.09;;;;;;;12.37;44.79;101031.61;455284;114;922683;-71
2021/10/12 02:17:16;;;;;;;9.50;8.36;;;;;;;12.36;44.79;101030.77;455284;113;923752;-72
2021/10/12 02:18:19;;;;;;;12.52;8.32;;;;;;;12.36;44.64;101032.66;455529;113;924043;-73
2021/10/12 02:19:23;;;;;;;8.21;7.49;;;;;;;12.36;44.50;101032.66;455556;116;922976;-73
2021/10/12 02:20:29;;;;;;;10.45;9.44;;;;;;;12.35;44.59;101039.20;455231;114;923066;-72
2021/10/12 02:21:33;;;;;;;9.98;9.17;;;;;;;12.35;44.32;101031.00;444866;115;928463;-73
2021/10/12 02:22:38;;;;;;;9.61;8.78;;;;;;;12.34;44.32;101029.32;444331;115;923331;-73
2021/10/12 02:23:42;;;;;;;10.33;9.51;;;;;;;12.34;44.43;101037.52;455743;116;922530;-73
2021/10/12 02:24:45;;;;;;;10.86;9.65;;;;;;;12.34;44.37;101040.26;454742;114;922682;-73
2021/10/12 02:25:48;;;;;;;9.73;9.01;;;;;;;12.34;44.25;101037.52;454834;113;922917;-74
2021/10/12 02:26:52;;;;;;;9.79;8.86;;;;;;;12.34;44.26;101048.46;455574;113;923084;-75
2021/10/12 02:27:56;;;;;;;9.68;8.64;;;;;;;12.33;44.42;101050.35;439097;118;923028;-73
2021/10/12 02:28:59;;;;;;;10.09;9.12;;;;;;;12.33;44.49;101044.05;447100;116;922589;-73
2021/10/12 02:30:05;;;;;;;11.23;9.23;;;;;;;12.32;44.39;101043.20;440310;117;922997;-73
2021/10/12 02:31:08;;;;;;;9.28;8.48;;;;;;;12.32;44.41;101045.94;439919;117;923143;-74
2021/10/12 02:32:12;;;;;;;10.99;9.44;;;;;;;12.33;44.51;101047.62;440509;120;923227;-73
2021/10/12 02:33:15;;;;;;;10.14;9.34;;;;;;;12.31;44.51;101044.25;439847;119;922654;-73
2021/10/12 02:34:19;;;;;;;10.24;9.14;;;;;;;12.31;44.58;101038.78;432230;119;931008;-72
2021/10/12 02:35:22;;;;;;;10.78;9.73;;;;;;;12.30;44.71;101036.25;446453;116;930634;-73
2021/10/12 02:36:26;;;;;;;10.16;8.94;;;;;;;12.29;44.85;101042.80;455467;114;922507;-74
2021/10/12 02:37:29;;;;;;;9.84;8.75;;;;;;;12.27;45.01;101037.54;455635;115;922623;-74
2021/10/12 02:38:32;;;;;;;10.62;9.46;;;;;;;12.27;45.23;101039.43;454903;113;922610;-73
2021/10/12 02:39:36;;;;;;;10.96;9.56;;;;;;;12.27;45.55;101045.73;455182;113;922856;-73
2021/10/12 02:40:41;;;;;;;9.66;8.91;;;;;;;12.27;45.55;101045.73;456136;116;930617;-73
2021/10/12 02:41:44;;;;;;;11.51;10.31;;;;;;;12.27;45.58;101037.54;454959;113;930506;-73
2021/10/12 02:42:47;;;;;;;10.31;9.41;;;;;;;12.28;45.59;101032.91;455266;113;922901;-73
2021/10/12 02:44:08;;;;;;;12.67;11.42;;;;;;;12.30;45.56;101038.98;455893;114;922665;-73
2021/10/12 02:45:12;;;;;;;12.36;11.23;;;;;;;12.32;45.43;101034.16;456043;114;922952;-74
2021/10/12 02:46:15;;;;;;;12.38;11.45;;;;;;;12.34;45.27;101032.05;455451;113;922710;-73
2021/10/12 02:47:18;;;;;;;12.74;11.78;;;;;;;12.34;45.13;101029.32;455234;113;923143;-74
2021/10/12 02:48:21;;;;;;;11.34;10.38;;;;;;;12.35;45.16;101028.27;456332;116;922540;-73
2021/10/12 02:49:24;;;;;;;11.12;10.09;;;;;;;12.37;45.34;101034.34;455721;115;922701;-72
2021/10/12 02:50:28;;;;;;;12.07;10.96;;;;;;;12.37;45.47;101031.61;455316;113;922666;-72
2021/10/12 02:51:32;;;;;;;12.41;11.24;;;;;;;12.36;45.49;101032.66;455752;113;922709;-73
2021/10/12 02:52:36;;;;;;;11.95;10.97;;;;;;;12.34;45.58;101034.79;454937;116;930354;-74
2021/10/12 02:53:39;;;;;;;12.61;10.92;;;;;;;12.33;45.66;101035.84;455755;114;922743;-73
2021/10/12 02:54:42;;;;;;;15.06;10.57;;;;;;;12.32;45.78;101032.27;455206;113;922595;-73
2021/10/12 02:55:46;;;;;;;12.76;11.57;;;;;;;12.32;45.84;101035.00;455304;113;922562;-71
2021/10/12 02:56:51;;;;;;;12.48;11.58;;;;;;;12.34;45.67;101040.26;455321;116;923335;-76
2021/10/12 02:57:55;;;;;;;12.03;11.09;;;;;;;12.34;45.35;101024.70;455450;114;922703;-72
2021/10/12 02:58:58;;;;;;;10.82;10.00;;;;;;;12.35;45.59;101022.80;455386;113;930581;-72
2021/10/12 03:00:05;;;;;;;11.26;10.12;;;;;;;12.35;45.78;101029.08;455562;113;922596;-73
2021/10/12 03:01:08;;;;;;;13.03;10.51;;;;;;;12.35;45.69;101026.34;455464;116;930063;-73
2021/10/12 03:02:12;;;;;;;12.18;11.04;;;;;;;12.35;45.63;101026.34;454682;113;922926;-74
2021/10/12 03:03:15;;;;;;;12.46;11.33;;;;;;;12.34;45.71;101021.12;458386;113;923020;-73
2021/10/12 03:04:19;;;;;;;11.87;10.89;;;;;;;12.34;45.83;101021.96;464947;112;930478;-74
2021/10/12 03:05:23;;;;;;;11.79;10.77;;;;;;;12.33;45.90;101024.91;465341;113;922742;-74
2021/10/12 03:06:26;;;;;;;12.81;11.62;;;;;;;12.32;45.81;101018.59;464327;113;922752;-73
2021/10/12 03:07:31;;;;;;;20.42;12.21;;;;;;;12.31;45.75;101019.64;464413;113;930783;-73
2021/10/12 03:08:35;;;;;;;16.91;11.28;;;;;;;12.31;45.80;101018.80;464647;112;922917;-74
2021/10/12 03:09:38;;;;;;;12.89;11.62;;;;;;;12.30;45.97;101020.69;464877;113;930392;-72
2021/10/12 03:10:42;;;;;;;13.65;11.36;;;;;;;12.31;45.99;101024.27;464907;111;922830;-73
2021/10/12 03:11:45;;;;;;;11.61;10.54;;;;;;;12.30;46.11;101017.95;465016;112;922930;-74
2021/10/12 03:12:49;;;;;;;15.89;11.00;;;;;;;12.31;46.21;101011.44;465090;112;922526;-76
2021/10/12 03:13:52;;;;;;;12.72;11.50;;;;;;;12.33;46.38;101016.70;464821;111;930493;-70
2021/10/12 03:14:55;;;;;;;13.36;12.14;;;;;;;12.33;46.39;101012.07;465250;112;930883;-74
2021/10/12 03:15:59;;;;;;;12.78;11.63;;;;;;;12.34;46.36;101016.49;464507;112;922542;-73
2021/10/12 03:17:03;;;;;;;13.46;11.55;;;;;;;12.35;46.23;101014.60;464239;112;922997;-72
2021/10/12 03:18:06;;;;;;;12.16;11.07;;;;;;;12.34;46.14;101011.02;464720;112;923060;-74
2021/10/12 03:19:11;;;;;;;12.82;11.14;;;;;;;12.35;46.16;101020.06;464581;112;923978;-74
2021/10/12 03:20:18;;;;;;;15.83;12.39;;;;;;;12.33;46.17;101014.80;464424;112;923516;-74
2021/10/12 03:21:22;;;;;;;15.02;12.12;;;;;;;12.32;46.27;101009.55;464289;113;923098;-73
2021/10/12 03:22:26;;;;;;;14.55;12.34;;;;;;;12.30;46.34;101014.38;464705;111;922501;-74
2021/10/12 03:23:30;;;;;;;15.32;11.52;;;;;;;12.28;46.43;101011.88;464782;111;922693;-73
2021/10/12 03:24:33;;;;;;;15.02;11.90;;;;;;;12.27;46.52;101014.82;464615;112;922951;-73
2021/10/12 03:25:36;;;;;;;23.27;12.43;;;;;;;12.27;46.63;101009.36;464571;113;922580;-72
2021/10/12 03:26:40;;;;;;;16.53;13.49;;;;;;;12.26;46.69;101015.88;465342;113;922528;-73
2021/10/12 03:27:43;;;;;;;18.23;12.78;;;;;;;12.25;46.74;101019.66;464824;112;923365;-74
2021/10/12 03:28:47;;;;;;;15.96;12.44;;;;;;;12.22;46.75;101015.47;464767;112;923162;-73
2021/10/12 03:29:50;;;;;;;17.73;13.02;;;;;;;12.21;46.71;101016.52;464645;112;922539;-72
2021/10/12 03:30:54;;;;;;;14.71;12.99;;;;;;;12.21;46.72;101013.78;464909;113;922897;-72
2021/10/12 03:31:59;;;;;;;16.75;12.33;;;;;;;12.22;46.84;101020.94;464179;112;930440;-72
2021/10/12 03:33:03;;;;;;;18.97;13.08;;;;;;;12.22;46.92;101009.16;464613;113;922885;-72
2021/10/12 03:34:07;;;;;;;15.31;13.91;;;;;;;12.22;46.94;101006.43;464791;111;922478;-72
2021/10/12 03:35:10;;;;;;;18.69;14.29;;;;;;;12.23;46.67;101008.11;464609;112;922733;-73
2021/10/12 03:36:18;;;;;;;15.01;13.71;;;;;;;12.23;46.57;101006.22;464215;111;923026;-72
2021/10/12 03:37:21;;;;;;;15.03;13.57;;;;;;;12.25;46.39;101011.45;464668;113;922584;-72
2021/10/12 03:38:27;;;;;;;14.24;12.93;;;;;;;12.26;46.22;101013.98;465152;113;922944;-73
2021/10/12 03:39:31;;;;;;;14.29;12.45;;;;;;;12.27;46.26;101009.36;464924;112;930507;-72
2021/10/12 03:40:36;;;;;;;16.26;12.49;;;;;;;12.28;46.34;101005.57;464169;111;922464;-71
2021/10/12 03:41:39;;;;;;;15.47;12.92;;;;;;;12.29;46.38;101007.25;463554;112;922571;-73
2021/10/12 03:42:42;;;;;;;14.98;13.51;;;;;;;12.29;46.21;101012.73;464393;112;923516;-71
2021/10/12 03:43:45;;;;;;;14.74;13.30;;;;;;;12.29;45.94;101009.98;464605;113;922580;-73
2021/10/12 03:44:49;;;;;;;17.68;13.76;;;;;;;12.29;45.94;101009.98;465052;113;923341;-73
2021/10/12 03:45:52;;;;;;;20.02;13.58;;;;;;;12.29;46.05;101007.25;465157;112;923099;-73
2021/10/12 03:46:56;;;;;;;15.58;14.18;;;;;;;12.29;45.85;101004.52;465146;113;922575;-71
2021/10/12 03:48:00;;;;;;;15.19;13.80;;;;;;;12.28;45.75;101006.41;465172;111;922721;-73
2021/10/12 03:49:03;;;;;;;20.09;15.29;;;;;;;12.28;45.91;101005.57;464487;113;923045;-74
2021/10/12 03:50:07;;;;;;;16.24;14.94;;;;;;;12.27;45.83;101001.99;464841;113;923018;-73
2021/10/12 03:51:11;;;;;;;20.49;18.55;;;;;;;12.27;45.70;101001.99;465562;113;930895;-72
2021/10/12 03:52:15;;;;;;;19.47;17.46;;;;;;;12.27;45.64;101004.73;464628;113;922899;-72
2021/10/12 03:53:18;;;;;;;24.46;20.72;;;;;;;12.26;45.62;101005.78;464879;112;922792;-73
2021/10/12 03:54:21;;;;;;;26.54;22.92;;;;;;;12.27;45.70;101009.36;464291;112;922551;-74
2021/10/12 03:55:25;;;;;;;24.10;21.54;;;;;;;12.27;45.73;101004.73;465482;113;925645;-72
2021/10/12 03:56:28;;;;;;;25.08;22.57;;;;;;;12.27;45.65;101007.46;464941;112;923184;-71
2021/10/12 03:57:32;;;;;;;29.10;22.61;;;;;;;12.26;45.77;100999.47;464374;112;930180;-74
2021/10/12 03:58:35;;;;;;;32.08;23.07;;;;;;;12.28;45.81;101000.10;464313;112;922514;-74
2021/10/12 03:59:38;;;;;;;31.39;22.62;;;;;;;12.27;45.80;100996.53;465036;112;923007;-72
2021/10/12 04:00:42;;;;;;;25.86;22.52;;;;;;;12.27;45.79;101001.99;464731;112;923030;-71
2021/10/12 04:01:45;;;;;;;30.23;22.86;;;;;;;12.28;45.90;101002.84;464222;111;922757;-73
2021/10/12 04:02:49;;;;;;;26.18;23.37;;;;;;;12.29;45.95;100999.05;463857;113;922928;-73
2021/10/12 04:03:53;;;;;;;28.88;22.91;;;;;;;12.30;45.99;101000.70;464041;111;922746;-71
2021/10/12 04:04:57;;;;;;;31.38;22.30;;;;;;;12.28;46.03;101000.95;464717;112;922973;-73
2021/10/12 04:06:00;;;;;;;25.77;22.40;;;;;;;12.28;46.10;101003.68;464999;113;923002;-74
2021/10/12 04:07:04;;;;;;;30.44;22.01;;;;;;;12.28;46.14;101002.84;464119;112;922974;-74
2021/10/12 04:08:08;;;;;;;24.48;21.68;;;;;;;12.28;46.22;101000.10;463714;113;922748;-72
2021/10/12 04:09:11;;;;;;;24.29;21.86;;;;;;;12.27;46.22;100999.27;463578;112;923203;-73
2021/10/12 04:10:17;;;;;;;25.83;21.24;;;;;;;12.26;46.24;100996.73;464544;112;930521;-73
2021/10/12 04:11:22;;;;;;;24.57;21.99;;;;;;;12.25;46.28;100997.78;464813;112;922910;-71
2021/10/12 04:12:26;;;;;;;25.27;21.98;;;;;;;12.24;46.35;101002.41;451528;115;922737;-73
2021/10/12 04:13:29;;;;;;;36.38;20.97;;;;;;;12.23;46.51;100995.28;442830;116;923690;-73
2021/10/12 04:14:33;;;;;;;23.65;20.32;;;;;;;12.23;46.54;100992.55;464516;111;923172;-72
2021/10/12 04:15:36;;;;;;;26.77;20.44;;;;;;;12.24;46.55;100993.39;464941;112;930737;-74
2021/10/12 04:16:40;;;;;;;21.97;19.69;;;;;;;12.24;46.60;100993.39;464850;113;922927;-73
2021/10/12 04:17:44;;;;;;;21.53;19.39;;;;;;;12.23;46.52;100998.02;464916;113;925633;-72
2021/10/12 04:18:47;;;;;;;25.23;19.34;;;;;;;12.23;46.58;100997.18;464759;112;922694;-72
2021/10/12 04:19:50;;;;;;;28.76;20.49;;;;;;;12.23;46.60;100997.18;453462;115;922953;-71
2021/10/12 04:20:54;;;;;;;22.18;19.09;;;;;;;12.23;46.65;100997.18;464735;113;923214;-73
2021/10/12 04:21:57;;;;;;;21.69;18.60;;;;;;;12.23;46.67;100994.44;464089;112;925548;-73
2021/10/12 04:23:02;;;;;;;26.34;17.52;;;;;;;12.22;46.71;100995.49;464329;111;930543;-73
2021/10/12 04:24:05;;;;;;;30.64;19.16;;;;;;;12.20;46.63;100992.97;464214;112;922479;-74
2021/10/12 04:25:09;;;;;;;45.05;20.89;;;;;;;12.19;46.67;100998.64;464848;113;930519;-74
2021/10/12 04:26:15;;;;;;;71.78;21.22;;;;;;;12.18;46.84;100994.25;464232;112;930762;-73
2021/10/12 04:27:18;;;;;;;45.82;19.48;;;;;;;12.16;46.92;100996.34;463686;111;922656;-72
2021/10/12 04:28:21;;;;;;;35.96;19.40;;;;;;;12.15;46.96;100997.40;464476;113;922584;-73
2021/10/12 04:29:25;;;;;;;53.41;19.64;;;;;;;12.13;46.97;101003.07;465104;112;930680;-73
2021/10/12 04:30:30;;;;;;;78.84;23.46;;;;;;;12.13;47.01;101002.27;464818;112;930240;-73
2021/10/12 04:31:34;;;;;;;62.79;22.25;;;;;;;12.11;47.20;101005.20;465258;112;922730;-74
2021/10/12 04:32:40;;;;;;;56.14;21.18;;;;;;;12.09;47.26;101002.67;464334;113;922752;-73
2021/10/12 04:33:43;;;;;;;72.16;22.65;;;;;;;12.08;47.42;101000.14;463891;112;922504;-70
2021/10/12 04:34:47;;;;;;;43.89;18.51;;;;;;;12.07;47.52;100998.49;463780;111;930595;-71
2021/10/12 04:35:50;;;;;;;36.75;19.19;;;;;;;12.06;47.56;100992.19;464569;112;922806;-73
2021/10/12 04:36:56;;;;;;;48.51;18.26;;;;;;;12.07;47.62;100995.77;464998;112;930531;-71
2021/10/12 04:38:00;;;;;;;27.90;17.32;;;;;;;12.07;47.69;100999.30;464174;111;922981;-74
2021/10/12 04:39:05;;;;;;;19.56;16.66;;;;;;;12.06;47.67;100989.45;464595;111;922617;-73
2021/10/12 04:40:09;;;;;;;27.06;17.48;;;;;;;12.06;47.60;100992.19;464648;112;923044;-73
2021/10/12 04:41:12;;;;;;;29.41;16.99;;;;;;;12.08;47.55;100997.41;465127;112;930621;-73
2021/10/12 04:42:16;;;;;;;53.23;19.31;;;;;;;12.08;47.56;100991.95;464859;112;922486;-73
2021/10/12 04:43:21;;;;;;;53.41;25.94;;;;;;;12.09;47.55;100988.16;464637;112;930858;-72
2021/10/12 04:44:26;;;;;;;55.08;29.51;;;;;;;12.11;47.56;100986.91;463530;112;923766;-72
2021/10/12 04:45:30;;;;;;;58.01;33.84;;;;;;;12.13;47.53;100994.06;463905;112;923136;-71
2021/10/12 04:46:34;;;;;;;61.71;40.34;;;;;;;12.15;47.45;100994.66;464726;113;922609;-73
2021/10/12 04:47:39;;;;;;;73.29;45.83;;;;;;;12.16;47.37;100986.26;464309;111;923048;-70
2021/10/12 04:48:43;;;;;;;99.16;52.46;;;;;;;12.17;47.36;100987.10;464249;113;930572;-72
2021/10/12 04:49:48;;;;;;;99.32;54.98;;;;;;;12.18;47.28;100984.16;464908;111;922588;-72
2021/10/12 04:50:54;;;;;;;98.28;55.41;;;;;;;12.19;47.27;100979.50;463785;112;923633;-71